Terminal Aerodrome Forecast
Issued by NWS

Home | Current Version | Previous Version | Text Only | Print | Product List | Glossary On
Versions: 1 2 3 4 5 6 7 8 9 10 11 12 13 14
503
FTUS43 KGRR 282150 AAA
TAFAZO
TAF AMD
KAZO 282150Z 2822/2918 09008KT P6SM VCTS OVC040CB
      TEMPO 2822/2824 27015G25KT 3SM TSRA BR OVC025CB
     FM290300 07007KT P6SM VCSH SCT050 BKN100=

USA.gov is the U.S. government's official web portal to all federal, state and local government web resources and services.